createdAt,value
2023-03-23T15:59:01.830Z,15.70
2023-03-23T16:01:30.153Z,15.70
2023-03-23T16:04:01.037Z,15.60
2023-03-23T16:09:23.440Z,15.50
2023-03-23T16:11:50.296Z,15.50
2023-03-23T16:14:17.297Z,15.50
2023-03-23T16:16:50.437Z,15.50
2023-03-23T16:19:19.689Z,15.40
2023-03-23T16:21:46.514Z,15.30
2023-03-23T16:27:38.752Z,15.30
2023-03-23T16:30:25.540Z,15.20
2023-03-23T16:32:54.870Z,15.20
2023-03-23T16:35:35.741Z,15.10
2023-03-23T16:38:08.079Z,15.10
2023-03-23T16:40:36.834Z,15.00
2023-03-23T16:45:48.149Z,14.90
2023-03-23T16:48:16.272Z,14.90
2023-03-23T16:50:44.448Z,14.90
2023-03-23T16:53:11.568Z,14.90
2023-03-23T16:55:43.355Z,14.90
2023-03-23T16:58:17.117Z,14.80
2023-03-23T17:00:49.494Z,14.80
2023-03-23T17:03:17.894Z,14.80
2023-03-23T17:05:49.701Z,14.70
2023-03-23T17:08:17.475Z,14.70
2023-03-23T17:10:45.089Z,14.70
2023-03-23T17:16:08.292Z,14.70
2023-03-23T17:18:38.443Z,14.70
2023-03-23T17:21:07.462Z,14.70
2023-03-23T17:23:37.197Z,14.70
2023-03-23T17:26:08.232Z,14.70
2023-03-23T17:28:37.114Z,14.70
2023-03-23T17:31:18.725Z,14.70
2023-03-23T17:33:52.082Z,14.70
2023-03-23T17:36:19.640Z,14.70
2023-03-23T17:38:46.322Z,14.70
2023-03-23T17:41:22.973Z,14.60
2023-03-23T17:44:14.907Z,14.60
2023-03-23T17:46:41.861Z,14.60
2023-03-23T17:49:11.094Z,14.60
2023-03-23T17:51:37.889Z,14.60
2023-03-23T17:54:05.335Z,14.50
2023-03-23T17:56:35.113Z,14.50
2023-03-23T17:59:04.122Z,14.50
2023-03-23T18:01:30.924Z,14.50
2023-03-23T18:06:58.512Z,14.50
2023-03-23T18:09:28.046Z,14.40
2023-03-23T18:11:55.861Z,14.40
2023-03-23T18:14:22.800Z,14.40
2023-03-23T18:16:49.594Z,14.30
2023-03-23T18:19:21.018Z,14.30
2023-03-23T18:21:47.716Z,14.30
2023-03-23T18:24:20.605Z,14.30
2023-03-23T18:26:49.985Z,14.30
2023-03-23T18:29:20.231Z,14.30
2023-03-23T18:31:47.175Z,14.20
2023-03-23T18:34:14.063Z,14.20
2023-03-23T18:36:48.171Z,14.20
2023-03-23T18:39:24.916Z,14.20
2023-03-23T18:41:51.626Z,14.20
2023-03-23T18:44:21.040Z,14.20
2023-03-23T18:46:47.836Z,14.20
2023-03-23T18:49:15.520Z,14.20
2023-03-23T18:51:42.287Z,14.20
2023-03-23T18:57:01.805Z,14.10
2023-03-23T18:59:38.267Z,14.10
2023-03-23T19:02:06.358Z,14.10
2023-03-23T19:13:37.572Z,14.00
2023-03-23T19:16:11.411Z,14.00
2023-03-23T19:18:38.008Z,13.90
2023-03-23T19:21:14.414Z,13.90
2023-03-23T19:29:53.473Z,13.80
2023-03-23T19:35:34.212Z,13.80
2023-03-23T19:40:57.138Z,13.70
2023-03-23T19:43:27.716Z,13.60
2023-03-23T19:45:54.430Z,13.60
2023-03-23T19:48:24.211Z,13.60
2023-03-23T19:50:52.794Z,13.50
2023-03-23T19:53:20.535Z,13.50
2023-03-23T19:55:48.453Z,13.40
2023-03-23T19:58:18.255Z,13.40
2023-03-23T20:00:53.841Z,13.30
2023-03-23T20:03:22.520Z,13.30
2023-03-23T20:05:50.469Z,13.30
2023-03-23T20:08:17.622Z,13.30
2023-03-23T20:10:44.705Z,13.30
2023-03-23T20:13:12.387Z,13.20
2023-03-23T20:15:41.130Z,13.20
2023-03-23T20:18:09.762Z,13.20
2023-03-23T20:20:36.852Z,13.20
2023-03-23T20:23:07.093Z,13.20
2023-03-23T20:25:34.995Z,13.20
2023-03-23T20:28:03.666Z,13.10
2023-03-23T20:30:31.126Z,13.10
2023-03-23T20:32:59.973Z,13.20
2023-03-23T20:38:15.040Z,13.20
2023-03-23T20:40:41.649Z,13.20
2023-03-23T20:43:13.180Z,13.20
2023-03-23T20:49:03.383Z,13.20
2023-03-23T21:00:46.310Z,13.30
2023-03-23T21:08:40.583Z,13.20
2023-03-23T21:17:23.375Z,13.30
2023-03-23T21:26:07.449Z,13.50
2023-03-23T21:28:37.180Z,13.50
2023-03-23T21:31:06.527Z,13.50
2023-03-23T21:33:33.870Z,13.50
2023-03-23T21:36:01.665Z,13.50
2023-03-23T21:38:31.612Z,13.50
2023-03-23T21:41:04.968Z,13.50
2023-03-23T21:43:31.725Z,13.50
2023-03-23T21:58:11.218Z,13.40
2023-03-23T22:03:47.976Z,13.30
2023-03-23T22:06:22.847Z,13.30
2023-03-23T22:08:49.926Z,13.30
2023-03-23T22:11:42.120Z,13.30
2023-03-23T22:17:00.215Z,13.20
2023-03-23T22:22:18.707Z,13.10
2023-03-23T22:24:45.372Z,13.10
2023-03-23T22:27:12.119Z,13.10
2023-03-23T22:32:33.655Z,13.00
2023-03-23T22:37:57.613Z,13.00
2023-03-23T22:40:30.142Z,13.00
2023-03-23T22:42:57.288Z,13.00
2023-03-23T22:45:29.392Z,12.90
2023-03-23T22:47:57.334Z,12.90
2023-03-23T22:50:27.098Z,12.90
2023-03-23T22:52:54.706Z,13.00
2023-03-23T22:55:21.419Z,13.20
2023-03-23T22:57:55.326Z,13.30
2023-03-23T23:00:22.196Z,13.40
2023-03-23T23:02:49.303Z,13.50
2023-03-23T23:05:22.162Z,13.50
2023-03-23T23:07:49.848Z,13.50
2023-03-23T23:10:16.624Z,13.50
2023-03-23T23:15:52.850Z,13.50
2023-03-23T23:18:23.068Z,13.40
2023-03-23T23:27:01.525Z,13.40
2023-03-23T23:32:24.691Z,13.30
2023-03-23T23:35:16.960Z,13.30
2023-03-23T23:40:51.141Z,13.30
2023-03-23T23:43:17.800Z,13.20
2023-03-23T23:45:44.645Z,13.20
2023-03-23T23:51:15.597Z,13.10
2023-03-23T23:56:32.816Z,13.10
2023-03-23T23:59:00.442Z,13.00
